sensor_id;sensor_type;location;lat;lon;timestamp;pressure;altitude;pressure_sealevel;temperature;humidity
28267;BME280;15525;45.568;5.448;2023-09-07T00:01:16;98192.44;;;25.69;45.10
28267;BME280;15525;45.568;5.448;2023-09-07T00:03:41;98197.50;;;25.67;45.10
28267;BME280;15525;45.568;5.448;2023-09-07T00:06:07;98198.72;;;25.70;45.07
28267;BME280;15525;45.568;5.448;2023-09-07T00:08:33;98188.47;;;25.67;44.83
28267;BME280;15525;45.568;5.448;2023-09-07T00:11:05;98199.03;;;25.65;44.81
28267;BME280;15525;45.568;5.448;2023-09-07T00:13:31;98197.88;;;25.66;44.57
28267;BME280;15525;45.568;5.448;2023-09-07T00:16:00;98194.56;;;25.57;44.89
28267;BME280;15525;45.568;5.448;2023-09-07T00:18:26;98191.41;;;25.55;44.86
28267;BME280;15525;45.568;5.448;2023-09-07T00:20:52;98188.34;;;25.60;44.59
28267;BME280;15525;45.568;5.448;2023-09-07T00:23:17;98193.84;;;25.60;44.61
28267;BME280;15525;45.568;5.448;2023-09-07T00:25:45;98192.53;;;25.54;44.62
28267;BME280;15525;45.568;5.448;2023-09-07T00:28:10;98188.56;;;25.51;44.64
28267;BME280;15525;45.568;5.448;2023-09-07T00:30:35;98185.06;;;25.51;44.59
28267;BME280;15525;45.568;5.448;2023-09-07T00:33:01;98188.53;;;25.29;45.16
28267;BME280;15525;45.568;5.448;2023-09-07T00:35:26;98188.53;;;25.29;45.16
28267;BME280;15525;45.568;5.448;2023-09-07T00:37:51;98189.84;;;25.19;45.15
28267;BME280;15525;45.568;5.448;2023-09-07T00:40:17;98181.22;;;25.17;45.22
28267;BME280;15525;45.568;5.448;2023-09-07T00:42:42;98178.53;;;25.21;45.12
28267;BME280;15525;45.568;5.448;2023-09-07T00:45:08;98183.59;;;25.19;45.17
28267;BME280;15525;45.568;5.448;2023-09-07T00:47:34;98194.63;;;25.03;45.33
28267;BME280;15525;45.568;5.448;2023-09-07T00:50:04;98180.34;;;25.13;45.24
28267;BME280;15525;45.568;5.448;2023-09-07T00:52:30;98182.44;;;25.20;45.15
28267;BME280;15525;45.568;5.448;2023-09-07T00:54:56;98184.63;;;25.30;45.00
28267;BME280;15525;45.568;5.448;2023-09-07T00:57:21;98179.94;;;25.30;44.73
28267;BME280;15525;45.568;5.448;2023-09-07T00:59:47;98180.06;;;25.37;44.70
28267;BME280;15525;45.568;5.448;2023-09-07T01:02:12;98172.28;;;25.39;44.60
28267;BME280;15525;45.568;5.448;2023-09-07T01:04:38;98178.13;;;25.38;44.68
28267;BME280;15525;45.568;5.448;2023-09-07T01:07:12;98181.84;;;25.11;45.00
28267;BME280;15525;45.568;5.448;2023-09-07T01:09:40;98181.06;;;25.10;45.10
28267;BME280;15525;45.568;5.448;2023-09-07T01:12:06;98179.13;;;25.11;45.20
28267;BME280;15525;45.568;5.448;2023-09-07T01:14:36;98174.06;;;25.13;45.04
28267;BME280;15525;45.568;5.448;2023-09-07T01:17:02;98168.66;;;24.97;45.48
28267;BME280;15525;45.568;5.448;2023-09-07T01:19:28;98176.78;;;24.94;45.24
28267;BME280;15525;45.568;5.448;2023-09-07T01:21:55;98172.47;;;24.93;45.23
28267;BME280;15525;45.568;5.448;2023-09-07T01:24:21;98177.66;;;24.98;45.18
28267;BME280;15525;45.568;5.448;2023-09-07T01:26:48;98179.53;;;24.94;45.27
28267;BME280;15525;45.568;5.448;2023-09-07T01:29:15;98174.34;;;24.89;45.31
28267;BME280;15525;45.568;5.448;2023-09-07T01:31:42;98171.53;;;24.85;45.53
28267;BME280;15525;45.568;5.448;2023-09-07T01:34:08;98170.44;;;24.90;45.25
28267;BME280;15525;45.568;5.448;2023-09-07T01:36:34;98171.41;;;24.63;45.65
28267;BME280;15525;45.568;5.448;2023-09-07T01:39:00;98173.25;;;24.59;45.81
28267;BME280;15525;45.568;5.448;2023-09-07T01:41:25;98169.63;;;24.55;45.82
28267;BME280;15525;45.568;5.448;2023-09-07T01:43:52;98169.13;;;24.65;45.65
28267;BME280;15525;45.568;5.448;2023-09-07T01:46:20;98166.41;;;24.84;45.19
28267;BME280;15525;45.568;5.448;2023-09-07T01:48:45;98174.09;;;24.78;45.46
28267;BME280;15525;45.568;5.448;2023-09-07T01:51:10;98167.09;;;24.81;45.38
28267;BME280;15525;45.568;5.448;2023-09-07T01:53:36;98162.19;;;24.71;45.69
28267;BME280;15525;45.568;5.448;2023-09-07T01:56:01;98169.13;;;24.65;45.67
28267;BME280;15525;45.568;5.448;2023-09-07T01:58:26;98172.03;;;24.56;45.68
28267;BME280;15525;45.568;5.448;2023-09-07T02:00:56;98166.47;;;24.37;46.38
28267;BME280;15525;45.568;5.448;2023-09-07T02:03:22;98176.31;;;24.23;46.47
28267;BME280;15525;45.568;5.448;2023-09-07T02:05:47;98173.66;;;24.11;46.63
28267;BME280;15525;45.568;5.448;2023-09-07T02:08:12;98172.84;;;24.26;46.54
28267;BME280;15525;45.568;5.448;2023-09-07T02:10:38;98176.28;;;24.38;46.29
28267;BME280;15525;45.568;5.448;2023-09-07T02:13:04;98169.03;;;24.46;46.02
28267;BME280;15525;45.568;5.448;2023-09-07T02:15:30;98177.81;;;24.36;46.38
28267;BME280;15525;45.568;5.448;2023-09-07T02:17:55;98174.59;;;24.34;46.29
28267;BME280;15525;45.568;5.448;2023-09-07T02:20:21;98163.47;;;24.42;46.07
28267;BME280;15525;45.568;5.448;2023-09-07T02:22:46;98169.47;;;24.48;46.04
28267;BME280;15525;45.568;5.448;2023-09-07T02:25:12;98178.28;;;24.57;45.81
28267;BME280;15525;45.568;5.448;2023-09-07T02:27:37;98176.69;;;24.56;45.52
28267;BME280;15525;45.568;5.448;2023-09-07T02:30:04;98185.63;;;24.37;45.89
28267;BME280;15525;45.568;5.448;2023-09-07T02:32:30;98182.06;;;24.18;46.49
28267;BME280;15525;45.568;5.448;2023-09-07T02:34:55;98177.28;;;24.15;46.72
28267;BME280;15525;45.568;5.448;2023-09-07T02:37:21;98191.66;;;24.27;46.30
28267;BME280;15525;45.568;5.448;2023-09-07T02:39:46;98190.88;;;23.96;47.15
28267;BME280;15525;45.568;5.448;2023-09-07T02:42:11;98187.47;;;23.71;47.61
28267;BME280;15525;45.568;5.448;2023-09-07T02:44:37;98199.19;;;23.72;47.75
28267;BME280;15525;45.568;5.448;2023-09-07T02:47:03;98185.75;;;23.94;47.27
28267;BME280;15525;45.568;5.448;2023-09-07T02:49:29;98187.06;;;24.00;47.10
28267;BME280;15525;45.568;5.448;2023-09-07T02:51:54;98187.78;;;24.13;46.60
28267;BME280;15525;45.568;5.448;2023-09-07T02:54:20;98188.38;;;24.22;46.49
28267;BME280;15525;45.568;5.448;2023-09-07T02:56:45;98191.84;;;24.19;46.64
28267;BME280;15525;45.568;5.448;2023-09-07T02:59:10;98187.25;;;24.07;46.99
28267;BME280;15525;45.568;5.448;2023-09-07T03:01:38;98187.53;;;24.02;47.23
28267;BME280;15525;45.568;5.448;2023-09-07T03:04:04;98182.75;;;23.99;47.31
28267;BME280;15525;45.568;5.448;2023-09-07T03:06:30;98188.31;;;24.03;46.89
28267;BME280;15525;45.568;5.448;2023-09-07T03:08:55;98182.13;;;23.90;47.02
28267;BME280;15525;45.568;5.448;2023-09-07T03:11:22;98186.97;;;23.97;47.27
28267;BME280;15525;45.568;5.448;2023-09-07T03:13:48;98181.31;;;23.90;47.29
28267;BME280;15525;45.568;5.448;2023-09-07T03:16:13;98182.78;;;23.87;47.31
28267;BME280;15525;45.568;5.448;2023-09-07T03:18:39;98184.81;;;23.75;47.72
28267;BME280;15525;45.568;5.448;2023-09-07T03:21:04;98189.72;;;23.54;48.14
28267;BME280;15525;45.568;5.448;2023-09-07T03:23:31;98189.28;;;23.52;48.20
28267;BME280;15525;45.568;5.448;2023-09-07T03:25:57;98196.97;;;23.62;48.00
28267;BME280;15525;45.568;5.448;2023-09-07T03:28:23;98185.34;;;23.65;48.02
28267;BME280;15525;45.568;5.448;2023-09-07T03:30:50;98184.00;;;23.59;47.90
28267;BME280;15525;45.568;5.448;2023-09-07T03:33:16;98183.13;;;23.55;48.10
28267;BME280;15525;45.568;5.448;2023-09-07T03:35:41;98188.31;;;23.60;47.99
28267;BME280;15525;45.568;5.448;2023-09-07T03:38:06;98191.66;;;23.26;48.57
28267;BME280;15525;45.568;5.448;2023-09-07T03:40:32;98188.47;;;23.12;49.00
28267;BME280;15525;45.568;5.448;2023-09-07T03:42:57;98184.50;;;23.09;48.99
28267;BME280;15525;45.568;5.448;2023-09-07T03:45:28;98188.06;;;23.22;48.88
28267;BME280;15525;45.568;5.448;2023-09-07T03:47:54;98193.34;;;23.18;48.84
28267;BME280;15525;45.568;5.448;2023-09-07T03:50:19;98193.50;;;23.22;48.74
28267;BME280;15525;45.568;5.448;2023-09-07T03:52:44;98191.56;;;23.22;48.73
28267;BME280;15525;45.568;5.448;2023-09-07T03:55:10;98192.03;;;23.24;48.81
28267;BME280;15525;45.568;5.448;2023-09-07T03:57:35;98180.97;;;23.21;48.76
28267;BME280;15525;45.568;5.448;2023-09-07T04:00:02;98191.13;;;23.20;48.88
28267;BME280;15525;45.568;5.448;2023-09-07T04:02:32;98196.81;;;23.15;48.90
28267;BME280;15525;45.568;5.448;2023-09-07T04:04:57;98205.44;;;23.29;48.60
28267;BME280;15525;45.568;5.448;2023-09-07T04:07:23;98196.38;;;23.41;48.28
28267;BME280;15525;45.568;5.448;2023-09-07T04:09:50;98203.75;;;23.52;47.97
28267;BME280;15525;45.568;5.448;2023-09-07T04:12:15;98195.88;;;23.51;48.08
28267;BME280;15525;45.568;5.448;2023-09-07T04:14:41;98193.19;;;23.39;48.26
28267;BME280;15525;45.568;5.448;2023-09-07T04:17:07;98194.66;;;23.09;48.84
28267;BME280;15525;45.568;5.448;2023-09-07T04:19:33;98193.50;;;23.10;48.97
28267;BME280;15525;45.568;5.448;2023-09-07T04:21:58;98191.69;;;23.14;48.91
28267;BME280;15525;45.568;5.448;2023-09-07T04:24:24;98198.16;;;23.09;49.07
28267;BME280;15525;45.568;5.448;2023-09-07T04:26:50;98197.97;;;23.02;49.01
28267;BME280;15525;45.568;5.448;2023-09-07T04:29:16;98197.16;;;23.14;48.82
28267;BME280;15525;45.568;5.448;2023-09-07T04:31:41;98196.63;;;22.96;49.05
28267;BME280;15525;45.568;5.448;2023-09-07T04:34:07;98195.50;;;22.97;49.10
28267;BME280;15525;45.568;5.448;2023-09-07T04:36:33;98196.75;;;22.88;49.18
28267;BME280;15525;45.568;5.448;2023-09-07T04:38:58;98200.22;;;22.73;49.78
28267;BME280;15525;45.568;5.448;2023-09-07T04:41:23;98196.56;;;22.57;49.94
28267;BME280;15525;45.568;5.448;2023-09-07T04:43:49;98200.53;;;22.71;49.74
28267;BME280;15525;45.568;5.448;2023-09-07T04:46:14;98201.13;;;22.77;49.71
28267;BME280;15525;45.568;5.448;2023-09-07T04:48:41;98194.03;;;22.88;49.44
28267;BME280;15525;45.568;5.448;2023-09-07T04:51:08;98192.44;;;22.99;49.11
28267;BME280;15525;45.568;5.448;2023-09-07T04:53:35;98202.78;;;22.93;49.33
28267;BME280;15525;45.568;5.448;2023-09-07T04:56:02;98206.56;;;22.77;49.61
28267;BME280;15525;45.568;5.448;2023-09-07T04:58:28;98207.94;;;22.71;49.70
28267;BME280;15525;45.568;5.448;2023-09-07T05:00:53;98205.81;;;22.64;50.04
28267;BME280;15525;45.568;5.448;2023-09-07T05:03:19;98208.06;;;22.74;49.59
28267;BME280;15525;45.568;5.448;2023-09-07T05:05:45;98207.00;;;22.79;49.62
28267;BME280;15525;45.568;5.448;2023-09-07T05:08:10;98213.72;;;22.81;49.31
28267;BME280;15525;45.568;5.448;2023-09-07T05:10:36;98215.69;;;22.57;50.07
28267;BME280;15525;45.568;5.448;2023-09-07T05:13:02;98213.94;;;22.40;50.52
28267;BME280;15525;45.568;5.448;2023-09-07T05:15:27;98218.25;;;22.17;50.51
28267;BME280;15525;45.568;5.448;2023-09-07T05:17:53;98219.38;;;22.04;51.39
28267;BME280;15525;45.568;5.448;2023-09-07T05:20:19;98225.66;;;22.17;51.12
28267;BME280;15525;45.568;5.448;2023-09-07T05:22:44;98226.13;;;22.43;50.50
28267;BME280;15525;45.568;5.448;2023-09-07T05:25:11;98229.22;;;22.41;50.62
28267;BME280;15525;45.568;5.448;2023-09-07T05:27:37;98231.94;;;22.53;50.36
28267;BME280;15525;45.568;5.448;2023-09-07T05:30:03;98237.19;;;22.58;50.34
28267;BME280;15525;45.568;5.448;2023-09-07T05:32:29;98240.44;;;22.28;51.09
28267;BME280;15525;45.568;5.448;2023-09-07T05:34:54;98239.06;;;22.34;51.01
28267;BME280;15525;45.568;5.448;2023-09-07T05:37:19;98248.31;;;22.53;50.64
28267;BME280;15525;45.568;5.448;2023-09-07T05:39:45;98250.81;;;22.70;50.25
28267;BME280;15525;45.568;5.448;2023-09-07T05:42:10;98248.53;;;22.72;50.05
28267;BME280;15525;45.568;5.448;2023-09-07T05:44:37;98250.25;;;22.77;50.20
28267;BME280;15525;45.568;5.448;2023-09-07T05:47:03;98246.13;;;22.83;49.94
28267;BME280;15525;45.568;5.448;2023-09-07T05:49:29;98253.00;;;22.53;50.70
28267;BME280;15525;45.568;5.448;2023-09-07T05:51:54;98243.91;;;22.49;50.89
28267;BME280;15525;45.568;5.448;2023-09-07T05:54:20;98242.28;;;22.60;50.91
28267;BME280;15525;45.568;5.448;2023-09-07T05:56:45;98242.50;;;22.79;50.54
28267;BME280;15525;45.568;5.448;2023-09-07T05:59:11;98246.13;;;22.83;50.32
28267;BME280;15525;45.568;5.448;2023-09-07T06:01:36;98251.69;;;22.86;50.47
28267;BME280;15525;45.568;5.448;2023-09-07T06:04:02;98254.09;;;23.00;50.21
28267;BME280;15525;45.568;5.448;2023-09-07T06:06:29;98251.78;;;23.14;50.00
28267;BME280;15525;45.568;5.448;2023-09-07T06:08:54;98253.56;;;23.34;49.72
28267;BME280;15525;45.568;5.448;2023-09-07T06:11:19;98260.16;;;23.45;49.52
28267;BME280;15525;45.568;5.448;2023-09-07T06:13:45;98260.50;;;23.43;49.71
28267;BME280;15525;45.568;5.448;2023-09-07T06:16:12;98261.25;;;23.44;49.78
28267;BME280;15525;45.568;5.448;2023-09-07T06:18:37;98256.44;;;23.53;49.75
28267;BME280;15525;45.568;5.448;2023-09-07T06:21:04;98261.16;;;23.40;50.13
28267;BME280;15525;45.568;5.448;2023-09-07T06:23:31;98264.47;;;23.46;50.16
28267;BME280;15525;45.568;5.448;2023-09-07T06:25:56;98261.06;;;23.64;49.91
28267;BME280;15525;45.568;5.448;2023-09-07T06:28:22;98263.22;;;23.71;49.94
28267;BME280;15525;45.568;5.448;2023-09-07T06:30:47;98263.25;;;23.86;49.74
28267;BME280;15525;45.568;5.448;2023-09-07T06:33:13;98261.19;;;23.95;49.82
28267;BME280;15525;45.568;5.448;2023-09-07T06:35:39;98255.03;;;23.98;49.78
28267;BME280;15525;45.568;5.448;2023-09-07T06:38:04;98255.03;;;24.14;49.51
28267;BME280;15525;45.568;5.448;2023-09-07T06:40:30;98253.47;;;24.13;49.86
28267;BME280;15525;45.568;5.448;2023-09-07T06:42:55;98266.78;;;24.30;49.79
28267;BME280;15525;45.568;5.448;2023-09-07T06:45:23;98256.72;;;24.49;49.44
28267;BME280;15525;45.568;5.448;2023-09-07T06:47:52;98256.66;;;24.77;48.83
28267;BME280;15525;45.568;5.448;2023-09-07T06:50:17;98261.44;;;24.99;48.39
28267;BME280;15525;45.568;5.448;2023-09-07T06:52:43;98254.41;;;25.17;48.23
28267;BME280;15525;45.568;5.448;2023-09-07T06:55:09;98259.50;;;25.34;48.05
28267;BME280;15525;45.568;5.448;2023-09-07T06:57:36;98257.41;;;25.46;47.95
28267;BME280;15525;45.568;5.448;2023-09-07T07:00:03;98266.78;;;25.64;47.36
28267;BME280;15525;45.568;5.448;2023-09-07T07:02:31;98269.16;;;25.85;46.92
28267;BME280;15525;45.568;5.448;2023-09-07T07:04:58;98271.03;;;26.00;46.73
28267;BME280;15525;45.568;5.448;2023-09-07T07:07:23;98277.59;;;26.14;46.50
28267;BME280;15525;45.568;5.448;2023-09-07T07:09:49;98273.56;;;26.31;46.45
28267;BME280;15525;45.568;5.448;2023-09-07T07:12:15;98274.66;;;26.49;46.09
28267;BME280;15525;45.568;5.448;2023-09-07T07:14:41;98283.16;;;26.63;45.98
28267;BME280;15525;45.568;5.448;2023-09-07T07:17:06;98282.22;;;26.78;45.91
28267;BME280;15525;45.568;5.448;2023-09-07T07:19:32;98279.31;;;26.93;45.63
28267;BME280;15525;45.568;5.448;2023-09-07T07:21:57;98289.00;;;27.10;45.04
28267;BME280;15525;45.568;5.448;2023-09-07T07:24:22;98285.41;;;27.32;44.71
28267;BME280;15525;45.568;5.448;2023-09-07T07:26:48;98288.09;;;27.54;44.18
28267;BME280;15525;45.568;5.448;2023-09-07T07:29:13;98284.31;;;27.66;43.79
28267;BME280;15525;45.568;5.448;2023-09-07T07:31:39;98293.53;;;27.80;43.36
28267;BME280;15525;45.568;5.448;2023-09-07T07:34:04;98285.44;;;27.94;42.84
28267;BME280;15525;45.568;5.448;2023-09-07T07:36:30;98290.69;;;28.06;42.18
28267;BME280;15525;45.568;5.448;2023-09-07T07:38:56;98292.38;;;28.18;41.90
28267;BME280;15525;45.568;5.448;2023-09-07T07:41:21;98284.69;;;28.34;41.39
28267;BME280;15525;45.568;5.448;2023-09-07T07:43:47;98297.09;;;28.54;41.01
28267;BME280;15525;45.568;5.448;2023-09-07T07:46:12;98288.59;;;28.73;40.74
28267;BME280;15525;45.568;5.448;2023-09-07T07:48:41;98293.81;;;28.85;40.52
28267;BME280;15525;45.568;5.448;2023-09-07T07:51:07;98285.31;;;29.04;40.37
28267;BME280;15525;45.568;5.448;2023-09-07T07:53:34;98286.59;;;29.21;39.93
28267;BME280;15525;45.568;5.448;2023-09-07T07:55:59;98282.81;;;29.46;39.39
28267;BME280;15525;45.568;5.448;2023-09-07T07:58:25;98282.13;;;29.63;38.92
28267;BME280;15525;45.568;5.448;2023-09-07T08:00:50;98277.84;;;29.76;38.49
28267;BME280;15525;45.568;5.448;2023-09-07T08:03:16;98279.47;;;29.98;38.39
28267;BME280;15525;45.568;5.448;2023-09-07T08:05:42;98283.47;;;30.11;37.89
28267;BME280;15525;45.568;5.448;2023-09-07T08:08:08;98284.28;;;30.19;38.11
28267;BME280;15525;45.568;5.448;2023-09-07T08:10:34;98278.41;;;30.34;38.07
28267;BME280;15525;45.568;5.448;2023-09-07T08:13:02;98278.41;;;30.48;37.62
28267;BME280;15525;45.568;5.448;2023-09-07T08:15:28;98282.34;;;30.51;37.15
28267;BME280;15525;45.568;5.448;2023-09-07T08:17:53;98281.50;;;30.08;37.32
28267;BME280;15525;45.568;5.448;2023-09-07T08:20:19;98287.47;;;30.21;37.07
28267;BME280;15525;45.568;5.448;2023-09-07T08:22:45;98282.78;;;30.67;36.31
28267;BME280;15525;45.568;5.448;2023-09-07T08:25:11;98290.28;;;30.94;36.11
28267;BME280;15525;45.568;5.448;2023-09-07T08:27:41;98289.50;;;31.08;36.10
28267;BME280;15525;45.568;5.448;2023-09-07T08:30:12;98283.53;;;31.16;36.30
28267;BME280;15525;45.568;5.448;2023-09-07T08:32:39;98291.84;;;31.37;36.16
28267;BME280;15525;45.568;5.448;2023-09-07T08:35:06;98287.41;;;31.61;36.01
28267;BME280;15525;45.568;5.448;2023-09-07T08:37:35;98288.84;;;32.00;35.19
28267;BME280;15525;45.568;5.448;2023-09-07T08:40:02;98291.63;;;32.00;35.15
28267;BME280;15525;45.568;5.448;2023-09-07T08:42:30;98292.19;;;31.46;35.45
28267;BME280;15525;45.568;5.448;2023-09-07T08:44:56;98293.78;;;31.54;35.58
28267;BME280;15525;45.568;5.448;2023-09-07T08:47:26;98291.28;;;31.74;35.04
28267;BME280;15525;45.568;5.448;2023-09-07T08:49:57;98286.97;;;31.69;34.38
28267;BME280;15525;45.568;5.448;2023-09-07T08:52:23;98282.91;;;31.98;34.34
28267;BME280;15525;45.568;5.448;2023-09-07T08:54:49;98294.97;;;32.39;33.63
28267;BME280;15525;45.568;5.448;2023-09-07T08:57:15;98290.28;;;32.22;33.40
28267;BME280;15525;45.568;5.448;2023-09-07T08:59:42;98287.63;;;32.05;33.31
28267;BME280;15525;45.568;5.448;2023-09-07T09:02:11;98289.91;;;32.27;33.69
28267;BME280;15525;45.568;5.448;2023-09-07T09:04:37;98281.94;;;32.36;32.62
28267;BME280;15525;45.568;5.448;2023-09-07T09:07:03;98288.13;;;32.51;32.34
28267;BME280;15525;45.568;5.448;2023-09-07T09:09:29;98289.03;;;32.92;32.23
28267;BME280;15525;45.568;5.448;2023-09-07T09:11:54;98285.25;;;33.12;31.44
28267;BME280;15525;45.568;5.448;2023-09-07T09:14:20;98280.97;;;33.08;31.63
28267;BME280;15525;45.568;5.448;2023-09-07T09:16:51;98295.34;;;33.36;31.12
28267;BME280;15525;45.568;5.448;2023-09-07T09:19:17;98283.47;;;33.36;31.52
28267;BME280;15525;45.568;5.448;2023-09-07T09:21:46;98278.63;;;33.43;31.23
28267;BME280;15525;45.568;5.448;2023-09-07T09:24:12;98281.84;;;33.38;31.07
28267;BME280;15525;45.568;5.448;2023-09-07T09:26:38;98280.34;;;33.30;31.04
28267;BME280;15525;45.568;5.448;2023-09-07T09:29:03;98284.69;;;33.31;30.82
28267;BME280;15525;45.568;5.448;2023-09-07T09:31:29;98280.91;;;33.11;30.39
28267;BME280;15525;45.568;5.448;2023-09-07T09:33:55;98284.16;;;33.43;30.49
28267;BME280;15525;45.568;5.448;2023-09-07T09:36:21;98277.66;;;33.57;30.60
28267;BME280;15525;45.568;5.448;2023-09-07T09:38:48;98279.66;;;33.56;30.11
28267;BME280;15525;45.568;5.448;2023-09-07T09:41:19;98284.88;;;33.51;30.38
28267;BME280;15525;45.568;5.448;2023-09-07T09:43:46;98282.06;;;33.54;30.32
28267;BME280;15525;45.568;5.448;2023-09-07T09:46:17;98279.78;;;33.79;29.79
28267;BME280;15525;45.568;5.448;2023-09-07T09:48:42;98272.56;;;33.52;30.12
28267;BME280;15525;45.568;5.448;2023-09-07T09:51:10;98280.41;;;33.20;30.00
28267;BME280;15525;45.568;5.448;2023-09-07T09:53:36;98284.16;;;33.43;30.19
28267;BME280;15525;45.568;5.448;2023-09-07T09:56:02;98271.97;;;33.67;29.56
28267;BME280;15525;45.568;5.448;2023-09-07T09:58:27;98281.66;;;33.89;29.69
28267;BME280;15525;45.568;5.448;2023-09-07T10:00:56;98279.06;;;34.05;29.22
28267;BME280;15525;45.568;5.448;2023-09-07T10:03:40;98283.09;;;34.27;29.10
28267;BME280;15525;45.568;5.448;2023-09-07T10:06:17;98270.06;;;34.21;29.03
28267;BME280;15525;45.568;5.448;2023-09-07T10:09:11;98272.06;;;34.73;28.55
28267;BME280;15525;45.568;5.448;2023-09-07T10:11:39;98268.34;;;35.06;28.21
28267;BME280;15525;45.568;5.448;2023-09-07T10:14:06;98270.00;;;35.04;28.14
28267;BME280;15525;45.568;5.448;2023-09-07T10:16:49;98273.28;;;34.72;28.21
28267;BME280;15525;45.568;5.448;2023-09-07T10:19:16;98258.19;;;34.47;27.85
28267;BME280;15525;45.568;5.448;2023-09-07T10:21:42;98263.44;;;34.68;27.79
28267;BME280;15525;45.568;5.448;2023-09-07T10:24:08;98265.06;;;34.65;27.68
28267;BME280;15525;45.568;5.448;2023-09-07T10:26:33;98257.03;;;34.94;27.28
28267;BME280;15525;45.568;5.448;2023-09-07T10:28:59;98258.50;;;35.45;26.81
28267;BME280;15525;45.568;5.448;2023-09-07T10:31:31;98254.50;;;35.22;27.01
28267;BME280;15525;45.568;5.448;2023-09-07T10:34:07;98255.69;;;35.02;26.99
28267;BME280;15525;45.568;5.448;2023-09-07T10:36:34;98257.44;;;35.39;26.25
28267;BME280;15525;45.568;5.448;2023-09-07T10:39:02;98243.25;;;34.87;26.29
28267;BME280;15525;45.568;5.448;2023-09-07T10:41:39;98236.22;;;35.21;26.48
28267;BME280;15525;45.568;5.448;2023-09-07T10:44:05;98245.56;;;35.35;26.12
28267;BME280;15525;45.568;5.448;2023-09-07T10:46:31;98245.00;;;35.20;26.18
28267;BME280;15525;45.568;5.448;2023-09-07T10:48:57;98237.88;;;35.19;26.23
28267;BME280;15525;45.568;5.448;2023-09-07T10:51:22;98241.06;;;35.80;25.78
28267;BME280;15525;45.568;5.448;2023-09-07T10:53:48;98234.81;;;35.92;25.89
28267;BME280;15525;45.568;5.448;2023-09-07T10:56:14;98232.84;;;36.44;25.25
28267;BME280;15525;45.568;5.448;2023-09-07T10:58:39;98232.16;;;36.40;25.17
28267;BME280;15525;45.568;5.448;2023-09-07T11:01:07;98231.13;;;36.14;25.51
28267;BME280;15525;45.568;5.448;2023-09-07T11:03:34;98229.69;;;36.26;25.56
28267;BME280;15525;45.568;5.448;2023-09-07T11:06:17;98232.56;;;36.22;24.83
28267;BME280;15525;45.568;5.448;2023-09-07T11:08:45;98226.53;;;35.69;24.95
28267;BME280;15525;45.568;5.448;2023-09-07T11:11:12;98224.03;;;35.55;25.10
28267;BME280;15525;45.568;5.448;2023-09-07T11:13:38;98228.47;;;35.52;25.10
28267;BME280;15525;45.568;5.448;2023-09-07T11:16:07;98215.69;;;35.55;25.10
28267;BME280;15525;45.568;5.448;2023-09-07T11:18:33;98210.59;;;35.69;24.99
28267;BME280;15525;45.568;5.448;2023-09-07T11:21:01;98210.41;;;35.80;24.98
28267;BME280;15525;45.568;5.448;2023-09-07T11:23:29;98209.06;;;36.04;24.68
28267;BME280;15525;45.568;5.448;2023-09-07T11:25:56;98214.34;;;36.50;24.62
28267;BME280;15525;45.568;5.448;2023-09-07T11:28:23;98214.84;;;36.61;24.65
28267;BME280;15525;45.568;5.448;2023-09-07T11:30:54;98204.56;;;36.42;24.88
28267;BME280;15525;45.568;5.448;2023-09-07T11:33:21;98203.53;;;36.52;24.28
28267;BME280;15525;45.568;5.448;2023-09-07T11:35:47;98205.53;;;36.83;24.49
28267;BME280;15525;45.568;5.448;2023-09-07T11:38:14;98198.19;;;36.89;24.66
28267;BME280;15525;45.568;5.448;2023-09-07T11:40:41;98206.50;;;36.77;24.34
28267;BME280;15525;45.568;5.448;2023-09-07T11:43:13;98205.13;;;36.53;24.75
28267;BME280;15525;45.568;5.448;2023-09-07T11:45:43;98207.47;;;36.38;24.19
28267;BME280;15525;45.568;5.448;2023-09-07T11:48:10;98198.03;;;36.48;24.36
28267;BME280;15525;45.568;5.448;2023-09-07T11:50:36;98192.09;;;37.23;24.20
28267;BME280;15525;45.568;5.448;2023-09-07T11:53:02;98190.28;;;37.45;24.14
28267;BME280;15525;45.568;5.448;2023-09-07T11:55:28;98193.84;;;37.45;24.13
28267;BME280;15525;45.568;5.448;2023-09-07T11:57:53;98185.53;;;37.29;24.75
28267;BME280;15525;45.568;5.448;2023-09-07T12:00:19;98185.31;;;37.65;24.29
28267;BME280;15525;45.568;5.448;2023-09-07T12:02:45;98188.81;;;37.53;23.94
28267;BME280;15525;45.568;5.448;2023-09-07T12:05:10;98186.53;;;37.64;23.82
28267;BME280;15525;45.568;5.448;2023-09-07T12:07:40;98181.63;;;37.68;23.75
28267;BME280;15525;45.568;5.448;2023-09-07T12:10:06;98183.09;;;37.97;23.71
28267;BME280;15525;45.568;5.448;2023-09-07T12:12:39;98179.19;;;37.95;23.42
28267;BME280;15525;45.568;5.448;2023-09-07T12:15:05;98175.13;;;37.58;23.90
28267;BME280;15525;45.568;5.448;2023-09-07T12:17:31;98176.34;;;37.57;23.70
28267;BME280;15525;45.568;5.448;2023-09-07T12:19:56;98175.03;;;37.74;23.68
28267;BME280;15525;45.568;5.448;2023-09-07T12:22:22;98170.16;;;38.03;23.77
28267;BME280;15525;45.568;5.448;2023-09-07T12:24:47;98175.63;;;38.32;23.01
28267;BME280;15525;45.568;5.448;2023-09-07T12:27:13;98172.16;;;38.03;23.37
28267;BME280;15525;45.568;5.448;2023-09-07T12:29:38;98177.84;;;38.12;22.90
28267;BME280;15525;45.568;5.448;2023-09-07T12:32:04;98172.56;;;37.76;23.13
28267;BME280;15525;45.568;5.448;2023-09-07T12:34:30;98170.13;;;38.16;22.84
28267;BME280;15525;45.568;5.448;2023-09-07T12:36:55;98179.09;;;38.36;22.40
28267;BME280;15525;45.568;5.448;2023-09-07T12:39:21;98175.53;;;38.69;22.16
28267;BME280;15525;45.568;5.448;2023-09-07T12:41:46;98165.09;;;38.48;22.21
28267;BME280;15525;45.568;5.448;2023-09-07T12:44:11;98160.38;;;38.33;23.11
28267;BME280;15525;45.568;5.448;2023-09-07T12:46:38;98156.06;;;38.66;22.41
28267;BME280;15525;45.568;5.448;2023-09-07T12:49:03;98170.22;;;38.96;22.56
28267;BME280;15525;45.568;5.448;2023-09-07T12:51:29;98165.22;;;38.79;21.76
28267;BME280;15525;45.568;5.448;2023-09-07T12:53:55;98158.06;;;38.06;21.78
28267;BME280;15525;45.568;5.448;2023-09-07T12:56:20;98156.50;;;38.77;22.16